Portada
METAR-TAF:

METAR-TAF

Aeroports :

Tak, Tailàndia

latitud: 16-53N, longitud: 099-09E, altitud: 121 m

Observació

L'informe es va fer fa 1 hora i 1 minuts, a les 06:00 UTC
Temperatura 31°C
Humitat 55%
Pressió
Visibilitat 10 km o més
Escasses núvols a una alçada de 2800 ft

METAR: VTPT 260600Z /////KT 9999 FEW028 31/21 Q//// NOSIG

Hora: 14:01 (07:01 UTC)

Pronòstic

L'informe es va fer fa 2 hores i 1 minuts, a les 05:00 UTC
Pronòstic vàlid del 26 a les 06 UTC al 27 a les 06 UTC
Vent 5 kt del Est
Visibilitat 10 km o més
Escasses núvols a una alçada de 2800 ft

TAF: VTPT 260500Z 2606/2706 08005KT 9999 FEW028

Observacions i pronòstics meteorològics de més de 4000 aeroports (METAR i TAF).

Les estacions disponibles són els punts grocs i vermells al mapa.

Posi el ratolí al punt desitjat per veure el nom de l'estació.

Feu clic per veure les observacions i els pronòstics meteorològics.

Per canviar el mapa: feu clic els botons verds amb una creu de color negre per apropar; al botó verd amb un guió per allunyar la imatge; o en les fletxes verdes per a mapes adjacents.


METAR-TAF: